Time;durP1;ratioP1;P1;durP2;ratioP2;P2;SDS_P1;SDS_P2;PMS_P1;PMS_P2;Temp;Humidity;BMP_temperature;BMP_pressure;BME280_temperature;BME280_humidity;BME280_pressure;Samples;Min_cycle;Max_cycle;Signal;HPM_P1;HPM_P2
2022/10/20 00:01:19;;;;;;;11.85;7.03;;;7.40;99.90;;;;;;4955055;28;20069;-76
2022/10/20 00:03:46;;;;;;;9.73;6.82;;;7.40;99.90;;;;;;4958265;28;20050;-76
2022/10/20 00:06:32;;;;;;;8.25;6.75;;;7.40;99.90;;;;;;4959093;28;20126;-76
2022/10/20 00:09:00;;;;;;;9.18;7.13;;;7.40;99.90;;;;;;4955488;28;20126;-76
2022/10/20 00:11:27;;;;;;;10.23;7.28;;;7.40;99.90;;;;;;4966280;28;20046;-76
2022/10/20 00:13:54;;;;;;;7.90;7.10;;;7.40;99.90;;;;;;4966767;28;20095;-76
2022/10/20 00:16:22;;;;;;;9.80;7.53;;;7.40;99.90;;;;;;4975532;28;20389;-76
2022/10/20 00:18:47;;;;;;;9.73;6.70;;;7.30;99.90;;;;;;4951095;28;20494;-76
2022/10/20 00:21:20;;;;;;;7.97;7.18;;;7.30;99.90;;;;;;4969197;28;20070;-75
2022/10/20 00:23:46;;;;;;;10.35;7.32;;;7.30;99.90;;;;;;4969934;28;20536;-76
2022/10/20 00:26:15;;;;;;;8.45;7.45;;;7.30;99.90;;;;;;4966596;28;20051;-76
2022/10/20 00:28:41;;;;;;;8.50;7.20;;;7.20;99.90;;;;;;4969646;28;20047;-76
2022/10/20 00:31:07;;;;;;;10.30;7.22;;;7.20;99.90;;;;;;4966608;28;20528;-77
2022/10/20 00:33:33;;;;;;;8.88;7.25;;;7.20;99.90;;;;;;4974193;28;20539;-76
2022/10/20 00:36:01;;;;;;;8.48;7.22;;;7.20;99.90;;;;;;4950503;28;20039;-76
2022/10/20 00:38:27;;;;;;;9.95;7.25;;;7.20;99.90;;;;;;4968934;28;20031;-76
2022/10/20 00:40:52;;;;;;;9.73;6.95;;;7.20;99.90;;;;;;4968480;28;20105;-76
2022/10/20 00:43:18;;;;;;;10.82;7.40;;;7.20;99.90;;;;;;4965570;28;20074;-76
2022/10/20 00:45:51;;;;;;;8.23;7.40;;;7.10;99.90;;;;;;4966640;28;20497;-76
2022/10/20 00:48:20;;;;;;;9.70;7.35;;;7.10;99.90;;;;;;4956484;28;20039;-76
2022/10/20 00:50:49;;;;;;;9.80;7.80;;;7.10;99.90;;;;;;4957907;28;20437;-76
2022/10/20 00:53:17;;;;;;;8.32;7.20;;;7.00;99.90;;;;;;4966638;28;20043;-76
2022/10/20 00:55:46;;;;;;;9.73;7.38;;;7.00;99.90;;;;;;4955176;28;20036;-77
2022/10/20 00:58:12;;;;;;;10.05;7.70;;;7.00;99.90;;;;;;4948939;28;20081;-76
2022/10/20 01:00:40;;;;;;;10.30;7.80;;;7.00;99.90;;;;;;4957486;28;20038;-76
2022/10/20 01:03:11;;;;;;;11.85;7.22;;;7.00;99.90;;;;;;4966058;28;20036;-76
2022/10/20 01:05:38;;;;;;;17.20;7.88;;;7.00;99.90;;;;;;4957043;28;20486;-76
2022/10/20 01:08:04;;;;;;;8.63;6.60;;;7.00;99.90;;;;;;4950006;28;20409;-77
2022/10/20 01:10:38;;;;;;;8.00;7.20;;;7.00;99.90;;;;;;4973301;28;20034;-76
2022/10/20 01:13:30;;;;;;;9.48;7.35;;;7.00;99.90;;;;;;4973567;28;20093;-78
2022/10/20 01:16:11;;;;;;;7.75;6.68;;;7.00;99.90;;;;;;4972639;28;20050;-76
2022/10/20 01:19:05;;;;;;;10.68;7.75;;;7.00;99.90;;;;;;4961249;28;20038;-77
2022/10/20 01:21:49;;;;;;;11.57;6.95;;;7.00;99.90;;;;;;4952074;28;20039;-77
2022/10/20 01:24:54;;;;;;;10.10;7.30;;;7.00;99.90;;;;;;4973705;28;20078;-76
2022/10/20 01:27:42;;;;;;;10.15;7.88;;;7.00;99.90;;;;;;4954339;28;20560;-76
2022/10/20 01:30:09;;;;;;;8.90;7.07;;;7.00;99.90;;;;;;4971506;28;20047;-76
2022/10/20 01:32:37;;;;;;;12.48;7.30;;;6.90;99.90;;;;;;4967696;28;20401;-77
2022/10/20 01:35:06;;;;;;;9.77;7.25;;;6.90;99.90;;;;;;4953269;28;20050;-77
2022/10/20 01:37:47;;;;;;;10.13;7.47;;;6.90;99.90;;;;;;4954752;28;20058;-76
2022/10/20 01:40:33;;;;;;;10.10;7.30;;;6.90;99.90;;;;;;4968875;28;20047;-76
2022/10/20 01:43:05;;;;;;;9.50;7.20;;;6.90;99.90;;;;;;4969094;28;20051;-76
2022/10/20 01:45:34;;;;;;;11.52;7.30;;;6.90;99.90;;;;;;4950894;28;20050;-76
2022/10/20 01:48:03;;;;;;;9.02;7.57;;;6.90;99.90;;;;;;4965022;28;20043;-76
2022/10/20 01:50:29;;;;;;;8.68;7.22;;;6.90;99.90;;;;;;4966918;28;20066;-76
2022/10/20 01:52:58;;;;;;;9.63;7.47;;;6.90;99.90;;;;;;4961064;28;20516;-77
2022/10/20 01:55:24;;;;;;;10.57;7.47;;;6.80;99.90;;;;;;4971400;28;20038;-76
2022/10/20 01:58:08;;;;;;;10.70;7.75;;;6.80;99.90;;;;;;4965017;28;20034;-76
2022/10/20 02:00:36;;;;;;;10.32;7.82;;;6.80;99.90;;;;;;4973142;28;20051;-76
2022/10/20 02:03:28;;;;;;;9.50;7.55;;;6.70;99.90;;;;;;4964346;28;20455;-76
2022/10/20 02:05:59;;;;;;;10.73;7.57;;;6.70;99.90;;;;;;4949900;28;20086;-75
2022/10/20 02:08:25;;;;;;;9.70;7.53;;;6.70;99.90;;;;;;4944582;29;20066;-76
2022/10/20 02:10:54;;;;;;;10.35;7.75;;;6.70;99.90;;;;;;4969375;28;20497;-76
2022/10/20 02:13:20;;;;;;;9.25;7.47;;;6.60;99.90;;;;;;4973267;28;20043;-77
2022/10/20 02:15:51;;;;;;;8.68;7.47;;;6.60;99.90;;;;;;4971598;28;20031;-76
2022/10/20 02:18:28;;;;;;;10.40;7.53;;;6.60;99.90;;;;;;4956538;28;20413;-76
2022/10/20 02:20:56;;;;;;;9.77;7.53;;;6.60;99.90;;;;;;4972714;28;20401;-76
2022/10/20 02:23:22;;;;;;;9.32;7.80;;;6.60;99.90;;;;;;4967858;28;20066;-76
2022/10/20 02:25:51;;;;;;;8.82;7.55;;;6.60;99.90;;;;;;4964599;28;20065;-76
2022/10/20 02:28:20;;;;;;;9.00;7.80;;;6.60;99.90;;;;;;4964645;28;20117;-76
2022/10/20 02:30:47;;;;;;;9.95;7.38;;;6.60;99.90;;;;;;4971952;28;20398;-76
2022/10/20 02:33:15;;;;;;;11.35;7.60;;;6.60;99.90;;;;;;4956137;28;20039;-76
2022/10/20 02:35:49;;;;;;;10.35;7.75;;;6.60;99.90;;;;;;4955733;28;20066;-76
2022/10/20 02:38:14;;;;;;;9.55;7.60;;;6.60;99.90;;;;;;4964369;28;20436;-76
2022/10/20 02:40:40;;;;;;;10.65;7.68;;;6.60;99.90;;;;;;4962979;28;20045;-76
2022/10/20 02:43:05;;;;;;;8.75;7.72;;;6.60;99.90;;;;;;4971410;28;20113;-76
2022/10/20 02:45:31;;;;;;;8.50;7.60;;;6.60;99.90;;;;;;4955806;28;20050;-76
2022/10/20 02:47:56;;;;;;;9.60;7.70;;;6.60;99.90;;;;;;4971952;28;20077;-76
2022/10/20 02:50:22;;;;;;;10.85;7.82;;;6.60;99.90;;;;;;4972504;28;20066;-75
2022/10/20 02:52:48;;;;;;;10.35;8.45;;;6.60;99.90;;;;;;4947412;28;20046;-76
2022/10/20 02:55:13;;;;;;;9.25;8.07;;;6.60;99.90;;;;;;4971455;28;20528;-75
2022/10/20 02:57:39;;;;;;;9.35;7.63;;;6.60;99.90;;;;;;4947336;28;20118;-76
2022/10/20 03:00:06;;;;;;;10.88;7.47;;;6.60;99.90;;;;;;4972537;28;20125;-76
2022/10/20 03:02:32;;;;;;;10.63;7.53;;;6.60;99.90;;;;;;4972302;28;20105;-76
2022/10/20 03:04:57;;;;;;;8.55;7.65;;;6.50;99.90;;;;;;4972100;28;20517;-77
2022/10/20 03:07:23;;;;;;;9.63;7.93;;;6.50;99.90;;;;;;4968954;28;20066;-76
2022/10/20 03:09:49;;;;;;;9.70;7.97;;;6.60;99.90;;;;;;4971290;28;20449;-76
2022/10/20 03:12:14;;;;;;;9.88;7.45;;;6.50;99.90;;;;;;4955933;28;20047;-76
2022/10/20 03:14:41;;;;;;;9.13;7.85;;;6.50;99.90;;;;;;4971992;28;20039;-75
2022/10/20 03:17:07;;;;;;;11.60;7.93;;;6.50;99.90;;;;;;4969887;28;20039;-76
2022/10/20 03:19:33;;;;;;;10.48;8.02;;;6.50;99.90;;;;;;4952296;28;20405;-75
2022/10/20 03:21:59;;;;;;;11.55;8.60;;;6.50;99.90;;;;;;4963037;28;20093;-76
2022/10/20 03:24:24;;;;;;;9.73;8.63;;;6.50;99.90;;;;;;4972108;28;20084;-76
2022/10/20 03:26:50;;;;;;;11.05;8.45;;;6.50;99.90;;;;;;4963418;28;20042;-76
2022/10/20 03:29:15;;;;;;;9.40;8.30;;;6.50;99.90;;;;;;4955062;28;20050;-76
2022/10/20 03:31:41;;;;;;;9.38;8.30;;;6.50;99.90;;;;;;4970995;28;20046;-75
2022/10/20 03:34:07;;;;;;;10.68;8.40;;;6.50;99.90;;;;;;4969172;28;20039;-76
2022/10/20 03:36:33;;;;;;;9.25;8.10;;;6.50;99.90;;;;;;4946910;28;20552;-76
2022/10/20 03:38:58;;;;;;;9.45;8.48;;;6.50;99.90;;;;;;4977919;28;20078;-76
2022/10/20 03:41:24;;;;;;;11.35;8.80;;;6.40;99.90;;;;;;4977925;28;20437;-76
2022/10/20 03:43:49;;;;;;;10.18;8.70;;;6.50;99.90;;;;;;4978373;28;20117;-76
2022/10/20 03:46:15;;;;;;;9.82;8.75;;;6.50;99.90;;;;;;4957712;28;20489;-76
2022/10/20 03:48:41;;;;;;;11.68;8.85;;;6.50;99.90;;;;;;4971305;28;20532;-76
2022/10/20 03:51:08;;;;;;;11.07;8.77;;;6.50;99.90;;;;;;4969849;28;20109;-76
2022/10/20 03:53:34;;;;;;;11.40;9.60;;;6.50;99.90;;;;;;4971548;28;20122;-76
2022/10/20 03:56:05;;;;;;;11.18;8.55;;;6.50;99.90;;;;;;4974725;28;20468;-76
2022/10/20 03:58:30;;;;;;;13.40;9.07;;;6.50;99.90;;;;;;4969893;28;20027;-76
2022/10/20 04:00:56;;;;;;;11.68;9.18;;;6.50;99.90;;;;;;4977717;28;20518;-76
2022/10/20 04:03:22;;;;;;;10.23;9.20;;;6.50;99.90;;;;;;4973104;28;20063;-76
2022/10/20 04:05:47;;;;;;;10.85;9.63;;;6.50;99.90;;;;;;4973796;28;20433;-76
2022/10/20 04:08:13;;;;;;;13.13;10.23;;;6.50;99.90;;;;;;4968671;28;20039;-76
2022/10/20 04:10:39;;;;;;;11.52;10.02;;;6.50;99.90;;;;;;4970781;28;20483;-75
2022/10/20 04:13:04;;;;;;;11.48;9.48;;;6.50;99.90;;;;;;4975629;28;20057;-76
2022/10/20 04:15:30;;;;;;;13.32;10.63;;;6.50;99.90;;;;;;4978004;28;20159;-75
2022/10/20 04:17:56;;;;;;;13.07;10.40;;;6.50;99.90;;;;;;4968584;28;20047;-76
2022/10/20 04:20:21;;;;;;;11.45;9.77;;;6.50;99.90;;;;;;4960886;28;20054;-75
2022/10/20 04:22:47;;;;;;;12.35;11.00;;;6.50;99.90;;;;;;4969764;28;20050;-75
2022/10/20 04:25:12;;;;;;;11.48;10.38;;;6.50;99.90;;;;;;4978059;28;20126;-75
2022/10/20 04:27:39;;;;;;;11.65;10.50;;;6.50;99.90;;;;;;4970412;28;20035;-76
2022/10/20 04:30:06;;;;;;;11.93;10.68;;;6.50;99.90;;;;;;4959708;28;20176;-76
2022/10/20 04:32:31;;;;;;;11.55;10.25;;;6.50;99.90;;;;;;4971631;28;20126;-76
2022/10/20 04:34:57;;;;;;;15.82;12.30;;;6.60;99.90;;;;;;4958136;28;20193;-76
2022/10/20 04:37:22;;;;;;;12.48;11.27;;;6.60;99.90;;;;;;4972661;28;20042;-76
2022/10/20 04:39:49;;;;;;;13.10;11.85;;;6.60;99.90;;;;;;4949551;29;20050;-75
2022/10/20 04:42:18;;;;;;;13.85;11.70;;;6.50;99.90;;;;;;4957076;28;20101;-76
2022/10/20 04:44:44;;;;;;;13.52;11.82;;;6.60;99.90;;;;;;4973217;28;20039;-77
2022/10/20 04:47:10;;;;;;;13.98;12.48;;;6.60;99.90;;;;;;4974575;28;20039;-75
2022/10/20 04:49:36;;;;;;;14.07;12.25;;;6.60;99.90;;;;;;4967696;28;20313;-76
2022/10/20 04:52:01;;;;;;;14.88;13.45;;;6.60;99.90;;;;;;4949126;28;20132;-77
2022/10/20 04:54:27;;;;;;;14.18;12.30;;;6.60;99.90;;;;;;4969443;28;20035;-77
2022/10/20 04:56:53;;;;;;;17.67;12.90;;;6.60;99.90;;;;;;4970143;28;20097;-76
2022/10/20 04:59:18;;;;;;;14.02;12.63;;;6.60;99.90;;;;;;4965415;28;20045;-76
2022/10/20 05:01:44;;;;;;;15.00;13.40;;;6.60;99.90;;;;;;4972795;28;20039;-76
2022/10/20 05:04:10;;;;;;;15.90;13.43;;;6.60;99.90;;;;;;4974490;28;20078;-76
2022/10/20 05:06:35;;;;;;;17.20;13.75;;;6.60;99.90;;;;;;4974008;28;20509;-77
2022/10/20 05:09:05;;;;;;;15.70;13.40;;;6.60;99.90;;;;;;4974112;28;20038;-76
2022/10/20 05:11:35;;;;;;;14.50;13.05;;;6.60;99.90;;;;;;4973261;28;20047;-75
2022/10/20 05:14:00;;;;;;;15.55;13.82;;;6.50;99.90;;;;;;4965939;28;20114;-75
2022/10/20 05:16:26;;;;;;;16.35;14.80;;;6.50;99.90;;;;;;4957374;28;20127;-76
2022/10/20 05:18:53;;;;;;;16.20;14.50;;;6.50;99.90;;;;;;4973818;28;20070;-76
2022/10/20 05:21:23;;;;;;;15.50;13.93;;;6.50;99.90;;;;;;4938677;29;20451;-76
2022/10/20 05:23:54;;;;;;;16.95;15.18;;;6.60;99.90;;;;;;4938617;29;20042;-76
2022/10/20 05:26:19;;;;;;;18.95;14.68;;;6.50;99.90;;;;;;4956199;28;20043;-76
2022/10/20 05:28:47;;;;;;;16.80;15.15;;;6.50;99.90;;;;;;4972753;28;20035;-76
2022/10/20 05:31:15;;;;;;;17.08;15.27;;;6.60;99.90;;;;;;4973706;28;20072;-76
2022/10/20 05:33:46;;;;;;;17.25;15.60;;;6.50;99.90;;;;;;4973099;28;20045;-76
2022/10/20 05:36:15;;;;;;;17.58;15.77;;;6.50;99.90;;;;;;4965565;28;20046;-76
2022/10/20 05:38:41;;;;;;;17.40;15.43;;;6.50;99.90;;;;;;4973753;28;20047;-76
2022/10/20 05:41:12;;;;;;;17.02;15.20;;;6.50;99.90;;;;;;4957773;28;20046;-76
2022/10/20 05:43:38;;;;;;;18.67;16.63;;;6.50;99.90;;;;;;4971832;28;20039;-78
2022/10/20 05:46:04;;;;;;;17.23;15.48;;;6.50;99.90;;;;;;4965372;28;20050;-76
2022/10/20 05:48:30;;;;;;;17.35;15.65;;;6.50;99.90;;;;;;4973496;28;20039;-76
2022/10/20 05:51:16;;;;;;;17.98;16.08;;;6.50;99.90;;;;;;4972438;28;20043;-76
2022/10/20 05:53:42;;;;;;;19.90;16.35;;;6.50;99.90;;;;;;4967442;28;20058;-77
2022/10/20 05:56:11;;;;;;;17.45;15.75;;;6.50;99.90;;;;;;4940820;28;20130;-76
2022/10/20 05:58:37;;;;;;;18.05;16.23;;;6.50;99.90;;;;;;4973361;28;20062;-76
2022/10/20 06:01:16;;;;;;;18.17;16.33;;;6.50;99.90;;;;;;4953968;28;20035;-76
2022/10/20 06:03:45;;;;;;;17.77;16.08;;;6.50;99.90;;;;;;4983296;28;20497;-76
2022/10/20 06:06:11;;;;;;;17.98;16.27;;;6.50;99.90;;;;;;4965065;28;20122;-76
2022/10/20 06:08:36;;;;;;;19.55;17.55;;;6.50;99.90;;;;;;4971184;28;20122;-76
2022/10/20 06:11:08;;;;;;;19.13;17.23;;;6.60;99.90;;;;;;4956750;28;20039;-76
2022/10/20 06:13:34;;;;;;;18.00;16.10;;;6.50;99.90;;;;;;4951235;28;20039;-75
2022/10/20 06:16:03;;;;;;;18.65;16.80;;;6.50;99.90;;;;;;4951094;28;20070;-78
2022/10/20 06:18:30;;;;;;;18.90;16.85;;;6.60;99.90;;;;;;4967273;28;20034;-75
2022/10/20 06:21:05;;;;;;;19.83;17.73;;;6.60;99.90;;;;;;4958352;28;20031;-76
2022/10/20 06:23:31;;;;;;;19.33;17.33;;;6.60;99.90;;;;;;4967080;28;20039;-77
2022/10/20 06:26:08;;;;;;;19.75;17.73;;;6.60;99.90;;;;;;4966801;28;20113;-79
2022/10/20 06:28:36;;;;;;;20.48;18.42;;;6.60;99.90;;;;;;4967200;28;20038;-77
2022/10/20 06:31:14;;;;;;;19.45;17.45;;;6.60;99.90;;;;;;4956673;28;20039;-78
2022/10/20 06:33:40;;;;;;;18.55;16.63;;;6.60;99.90;;;;;;4955910;28;20424;-77
2022/10/20 06:36:06;;;;;;;18.48;16.77;;;6.60;99.90;;;;;;4969215;28;20050;-77
2022/10/20 06:38:32;;;;;;;19.90;17.83;;;6.60;99.90;;;;;;4949247;28;20031;-77
2022/10/20 06:41:02;;;;;;;18.83;16.83;;;6.60;99.90;;;;;;4972255;28;20043;-77
2022/10/20 06:43:28;;;;;;;19.10;17.40;;;6.60;99.90;;;;;;4971199;28;20038;-76
2022/10/20 06:45:58;;;;;;;19.90;17.95;;;6.60;99.90;;;;;;4962430;28;20124;-78
2022/10/20 06:48:24;;;;;;;21.90;17.50;;;6.60;99.90;;;;;;4943869;29;20042;-77
2022/10/20 06:50:58;;;;;;;18.65;16.75;;;6.70;99.90;;;;;;4952764;28;20370;-76
2022/10/20 06:53:25;;;;;;;19.73;17.83;;;6.70;99.90;;;;;;4967153;28;20042;-77
2022/10/20 06:56:05;;;;;;;18.83;17.02;;;6.70;99.90;;;;;;4951595;28;20512;-80
2022/10/20 06:58:33;;;;;;;18.88;17.00;;;6.80;99.90;;;;;;4960762;28;20035;-77
2022/10/20 07:01:07;;;;;;;19.27;17.40;;;6.80;99.90;;;;;;4947885;28;20035;-76
2022/10/20 07:03:35;;;;;;;20.40;18.20;;;6.80;99.90;;;;;;4969038;28;20039;-76
2022/10/20 07:06:01;;;;;;;19.42;17.63;;;6.80;99.90;;;;;;4972799;28;20050;-77
2022/10/20 07:08:28;;;;;;;19.95;17.95;;;6.90;99.90;;;;;;4956727;28;20042;-76
2022/10/20 07:11:06;;;;;;;19.13;17.10;;;6.90;99.90;;;;;;4963590;28;20083;-77
2022/10/20 07:13:32;;;;;;;20.20;18.08;;;6.90;99.90;;;;;;4964924;28;20077;-76
2022/10/20 07:15:58;;;;;;;19.35;17.35;;;6.90;99.90;;;;;;4970114;28;20050;-76
2022/10/20 07:18:25;;;;;;;19.88;17.73;;;7.00;99.90;;;;;;4955876;28;20038;-76
2022/10/20 07:20:54;;;;;;;18.17;16.48;;;7.00;99.90;;;;;;4970382;28;20046;-76
2022/10/20 07:23:20;;;;;;;18.40;16.70;;;7.00;99.90;;;;;;4964684;28;20070;-76
2022/10/20 07:25:45;;;;;;;17.90;16.05;;;7.10;99.90;;;;;;4972091;28;20493;-75
2022/10/20 07:28:11;;;;;;;18.63;16.67;;;7.10;99.90;;;;;;4971537;28;20513;-76
2022/10/20 07:30:40;;;;;;;18.67;16.85;;;7.10;99.90;;;;;;4964628;28;20046;-76
2022/10/20 07:33:07;;;;;;;19.33;17.33;;;7.10;99.90;;;;;;4972605;28;20054;-75
2022/10/20 07:35:34;;;;;;;19.05;17.23;;;7.20;99.90;;;;;;4967594;28;20039;-75
2022/10/20 07:37:59;;;;;;;19.20;17.20;;;7.20;99.90;;;;;;4945870;28;20054;-77
2022/10/20 07:40:25;;;;;;;18.25;16.25;;;7.30;99.90;;;;;;4972424;28;20039;-76
2022/10/20 07:42:50;;;;;;;18.17;16.30;;;7.30;99.90;;;;;;4971823;28;20520;-76
2022/10/20 07:45:16;;;;;;;18.23;16.33;;;7.40;99.90;;;;;;4971607;28;20057;-76
2022/10/20 07:47:41;;;;;;;18.02;15.43;;;7.40;99.90;;;;;;4964329;28;20035;-76
2022/10/20 07:50:08;;;;;;;16.70;15.10;;;7.50;99.90;;;;;;4970526;28;20089;-75
2022/10/20 07:52:34;;;;;;;17.48;15.70;;;7.50;99.90;;;;;;4955899;28;20622;-75
2022/10/20 07:55:00;;;;;;;18.15;16.33;;;7.50;99.90;;;;;;4954100;28;20060;-77
2022/10/20 07:57:25;;;;;;;16.75;15.18;;;7.60;99.90;;;;;;4964875;28;20035;-77
2022/10/20 07:59:51;;;;;;;15.93;14.52;;;7.70;99.90;;;;;;4956048;28;20379;-76
2022/10/20 08:02:17;;;;;;;16.85;15.15;;;7.70;99.90;;;;;;4971591;28;20118;-75
2022/10/20 08:04:43;;;;;;;16.63;15.10;;;7.80;99.90;;;;;;4955159;28;20489;-76
2022/10/20 08:07:09;;;;;;;16.52;15.02;;;7.80;99.90;;;;;;4963674;28;20050;-77
2022/10/20 08:09:35;;;;;;;16.88;15.30;;;7.90;99.90;;;;;;4955541;28;20039;-75
2022/10/20 08:12:02;;;;;;;18.13;16.40;;;7.90;99.90;;;;;;4972281;28;20047;-76
2022/10/20 08:14:30;;;;;;;16.20;14.70;;;8.00;99.90;;;;;;4972129;28;20046;-76
2022/10/20 08:16:56;;;;;;;16.90;15.20;;;8.10;99.90;;;;;;4955660;28;20049;-77
2022/10/20 08:19:22;;;;;;;16.45;14.85;;;8.10;99.90;;;;;;4954905;28;20051;-76
2022/10/20 08:21:47;;;;;;;16.88;15.30;;;8.20;99.90;;;;;;4962857;28;20046;-76
2022/10/20 08:24:13;;;;;;;16.50;15.00;;;8.30;99.90;;;;;;4966207;28;20046;-77
2022/10/20 08:26:38;;;;;;;15.73;14.32;;;8.30;99.90;;;;;;4959285;28;20043;-76
2022/10/20 08:29:04;;;;;;;14.85;13.48;;;8.40;99.90;;;;;;4975195;28;20047;-75
2022/10/20 08:31:29;;;;;;;16.10;14.60;;;8.50;99.90;;;;;;4957951;28;20049;-77
2022/10/20 08:33:56;;;;;;;14.95;13.55;;;8.60;99.90;;;;;;4965941;28;20126;-76
2022/10/20 08:36:21;;;;;;;15.43;13.93;;;8.60;99.90;;;;;;4967354;28;20034;-76
2022/10/20 08:38:47;;;;;;;15.38;13.88;;;8.70;99.90;;;;;;4958731;28;20069;-77
2022/10/20 08:41:26;;;;;;;15.35;13.95;;;8.70;99.90;;;;;;4959273;28;20422;-76
2022/10/20 08:43:54;;;;;;;14.15;12.82;;;8.80;99.90;;;;;;4975172;28;20050;-76
2022/10/20 08:46:26;;;;;;;15.10;13.57;;;8.90;99.90;;;;;;4970143;28;20081;-77
2022/10/20 08:48:51;;;;;;;15.80;14.32;;;9.00;99.90;;;;;;4970785;28;20464;-77
2022/10/20 08:51:23;;;;;;;14.23;12.93;;;9.10;99.90;;;;;;4974404;28;20039;-77
2022/10/20 08:53:51;;;;;;;14.50;13.23;;;9.20;99.90;;;;;;4973217;28;20042;-76
2022/10/20 08:56:21;;;;;;;13.52;12.23;;;9.30;99.90;;;;;;4965959;28;20114;-76
2022/10/20 08:58:47;;;;;;;14.60;13.27;;;9.40;99.90;;;;;;4974195;28;20097;-77
2022/10/20 09:01:24;;;;;;;14.20;13.00;;;9.50;99.90;;;;;;4954650;28;21449;-77
2022/10/20 09:03:58;;;;;;;13.68;11.88;;;9.50;99.90;;;;;;4970891;28;20514;-77
2022/10/20 09:06:24;;;;;;;15.63;14.00;;;9.60;99.90;;;;;;4974489;28;20056;-76
2022/10/20 09:08:50;;;;;;;12.25;11.07;;;9.60;99.90;;;;;;4973041;28;20050;-76
2022/10/20 09:11:39;;;;;;;13.63;12.40;;;9.70;99.90;;;;;;4965809;28;20039;-77
2022/10/20 09:14:08;;;;;;;14.02;12.63;;;9.70;99.90;;;;;;4958272;28;20058;-77
2022/10/20 09:16:38;;;;;;;13.35;12.15;;;9.80;99.90;;;;;;4958326;28;20050;-76
2022/10/20 09:19:06;;;;;;;13.15;11.95;;;9.90;99.90;;;;;;4971672;28;20049;-76
2022/10/20 09:21:34;;;;;;;13.13;11.93;;;10.00;99.90;;;;;;4967785;28;20705;-77
2022/10/20 09:24:02;;;;;;;13.85;12.13;;;10.10;99.90;;;;;;4957783;28;20050;-77
2022/10/20 09:26:49;;;;;;;12.13;10.93;;;10.30;99.90;;;;;;4952239;29;20577;-77
2022/10/20 09:29:20;;;;;;;14.57;11.35;;;10.40;99.90;;;;;;4973032;28;20525;-78
2022/10/20 09:31:54;;;;;;;11.77;10.68;;;10.50;99.90;;;;;;4957809;28;20054;-77
2022/10/20 09:34:22;;;;;;;11.20;10.00;;;10.60;99.90;;;;;;4968686;28;20106;-76
2022/10/20 09:36:50;;;;;;;11.95;10.82;;;10.70;99.90;;;;;;4962588;28;20031;-76
2022/10/20 09:39:22;;;;;;;11.93;10.82;;;10.70;99.90;;;;;;4949156;28;20070;-77
2022/10/20 09:41:49;;;;;;;10.75;9.75;;;10.80;99.90;;;;;;4953784;28;20129;-78
2022/10/20 09:44:22;;;;;;;14.55;11.65;;;10.80;99.90;;;;;;4973739;28;20405;-79
2022/10/20 09:46:50;;;;;;;13.30;11.90;;;11.00;99.90;;;;;;4957753;28;20046;-77
2022/10/20 09:49:26;;;;;;;12.18;11.00;;;11.10;99.90;;;;;;4956700;28;20131;-77
2022/10/20 09:51:52;;;;;;;11.90;10.77;;;11.20;99.90;;;;;;4964881;28;20065;-76
2022/10/20 09:54:19;;;;;;;11.32;10.27;;;11.30;99.90;;;;;;4965553;28;20425;-76
2022/10/20 09:56:48;;;;;;;13.98;10.73;;;11.40;99.90;;;;;;4971387;28;20493;-76
2022/10/20 09:59:25;;;;;;;10.95;9.95;;;11.50;99.90;;;;;;4970279;28;20393;-76
2022/10/20 10:02:13;;;;;;;10.90;9.90;;;11.50;99.90;;;;;;4947144;28;20039;-76
2022/10/20 10:04:45;;;;;;;11.32;10.00;;;11.70;99.90;;;;;;4964767;28;20047;-76
2022/10/20 10:07:25;;;;;;;10.75;9.57;;;11.90;99.90;;;;;;4968447;28;20047;-76
2022/10/20 10:10:03;;;;;;;10.68;9.70;;;12.10;99.90;;;;;;4971372;28;20046;-77
2022/10/20 10:12:30;;;;;;;9.32;8.32;;;12.20;99.90;;;;;;4975142;28;20043;-78
2022/10/20 10:15:06;;;;;;;9.93;9.02;;;12.40;99.90;;;;;;4974995;28;20046;-79
2022/10/20 10:17:34;;;;;;;9.88;8.88;;;12.40;99.90;;;;;;4957885;28;20035;-79
2022/10/20 10:20:04;;;;;;;10.55;9.18;;;12.40;99.90;;;;;;4950963;28;20109;-78
2022/10/20 10:22:30;;;;;;;10.32;9.43;;;12.40;99.90;;;;;;4965319;28;20030;-79
2022/10/20 10:24:59;;;;;;;10.00;9.00;;;12.40;99.90;;;;;;4946754;29;20043;-78
2022/10/20 10:27:35;;;;;;;10.77;9.70;;;12.50;99.90;;;;;;4955092;28;20094;-77
2022/10/20 10:30:18;;;;;;;10.35;9.27;;;12.60;99.90;;;;;;4947820;28;20035;-77
2022/10/20 10:32:46;;;;;;;9.63;8.73;;;12.80;99.90;;;;;;4956563;28;20087;-78
2022/10/20 10:35:36;;;;;;;10.63;9.52;;;12.80;99.90;;;;;;4958894;28;20035;-77
2022/10/20 10:38:02;;;;;;;9.85;8.90;;;13.00;99.90;;;;;;4940913;28;20490;-78
2022/10/20 10:40:45;;;;;;;10.23;9.27;;;13.20;99.90;;;;;;4955354;28;20039;-79
2022/10/20 10:44:00;;;;;;;9.57;8.60;;;13.20;99.90;;;;;;4950811;28;20078;-80
2022/10/20 10:46:35;;;;;;;10.30;9.23;;;13.10;99.90;;;;;;4941281;28;20111;-79
2022/10/20 10:49:42;;;;;;;10.43;9.38;;;13.10;99.90;;;;;;4975013;28;20082;-79
2022/10/20 10:52:41;;;;;;;10.23;9.32;;;13.10;99.90;;;;;;4975947;28;20050;-79
2022/10/20 10:55:09;;;;;;;10.23;9.15;;;13.10;99.90;;;;;;4948557;28;20094;-78
2022/10/20 10:58:04;;;;;;;9.90;8.93;;;13.10;99.90;;;;;;4975168;28;20039;-78
2022/10/20 11:00:50;;;;;;;10.65;9.55;;;13.00;99.90;;;;;;4959701;28;20045;-79
2022/10/20 11:03:45;;;;;;;9.40;8.35;;;13.00;99.90;;;;;;4962370;28;20421;-78
2022/10/20 11:06:26;;;;;;;10.15;9.15;;;12.90;99.90;;;;;;4971600;28;20137;-79
2022/10/20 11:09:01;;;;;;;10.95;9.32;;;12.80;99.90;;;;;;4950211;28;20054;-79
2022/10/20 11:11:42;;;;;;;10.40;9.18;;;12.80;99.90;;;;;;4960025;28;20047;-78
2022/10/20 11:14:26;;;;;;;10.52;9.50;;;12.80;99.90;;;;;;4957407;28;20046;-79
2022/10/20 11:17:16;;;;;;;10.88;9.77;;;12.70;99.90;;;;;;4957094;28;20058;-78
2022/10/20 11:20:07;;;;;;;10.88;9.88;;;12.70;99.90;;;;;;4973139;28;20125;-79
2022/10/20 11:22:39;;;;;;;10.73;9.73;;;12.70;99.90;;;;;;4959239;28;20049;-78
2022/10/20 11:25:36;;;;;;;9.95;9.05;;;12.60;99.90;;;;;;4973704;28;20094;-79
2022/10/20 11:28:22;;;;;;;11.18;10.05;;;12.70;99.90;;;;;;4945697;29;20047;-80
2022/10/20 11:30:49;;;;;;;10.75;9.75;;;12.70;99.90;;;;;;4959455;28;20049;-77
2022/10/20 11:33:21;;;;;;;11.63;10.43;;;12.60;99.90;;;;;;4971477;28;20043;-78
2022/10/20 11:36:02;;;;;;;11.45;10.23;;;12.60;99.90;;;;;;4964273;28;20034;-79
2022/10/20 11:38:38;;;;;;;11.85;10.48;;;12.60;99.90;;;;;;4951369;29;20042;-79
2022/10/20 11:41:05;;;;;;;10.73;9.70;;;12.60;99.90;;;;;;4950715;28;20043;-79
2022/10/20 11:43:53;;;;;;;11.40;10.40;;;12.50;99.90;;;;;;4955010;28;20159;-78
2022/10/20 11:46:31;;;;;;;12.90;10.55;;;12.50;99.90;;;;;;4973480;28;20046;-80
2022/10/20 11:48:56;;;;;;;13.88;11.07;;;12.40;99.90;;;;;;4956665;28;20039;-79
2022/10/20 11:51:28;;;;;;;11.63;10.45;;;12.40;99.90;;;;;;4957827;28;20090;-77
2022/10/20 11:54:12;;;;;;;12.23;10.63;;;12.40;99.90;;;;;;4963384;28;20191;-79
2022/10/20 11:57:05;;;;;;;11.60;10.40;;;12.40;99.90;;;;;;4959059;28;20413;-77
2022/10/20 11:59:59;;;;;;;13.48;12.10;;;12.40;99.90;;;;;;4966556;28;20449;-77
2022/10/20 12:03:02;;;;;;;13.05;11.57;;;12.30;99.90;;;;;;4958639;28;20153;-78
2022/10/20 12:05:59;;;;;;;13.30;12.10;;;12.30;99.90;;;;;;4959215;28;20512;-77
2022/10/20 12:08:27;;;;;;;13.32;12.02;;;12.30;99.90;;;;;;4954063;28;20043;-77
2022/10/20 12:11:28;;;;;;;13.43;12.13;;;12.30;99.90;;;;;;4972350;28;20038;-77
2022/10/20 12:14:17;;;;;;;13.07;11.77;;;12.30;99.90;;;;;;4975068;28;20047;-77
2022/10/20 12:16:54;;;;;;;14.40;12.85;;;12.30;99.90;;;;;;4976204;28;20047;-79
2022/10/20 12:19:29;;;;;;;14.75;12.57;;;12.20;99.90;;;;;;4974846;28;20039;-77
2022/10/20 12:22:05;;;;;;;13.27;11.90;;;12.20;99.90;;;;;;4940872;28;20050;-77
2022/10/20 12:24:50;;;;;;;15.10;13.60;;;12.20;99.90;;;;;;4952665;28;20054;-78
2022/10/20 12:27:26;;;;;;;15.88;13.38;;;12.20;99.90;;;;;;4971642;28;20059;-77
2022/10/20 12:29:55;;;;;;;14.68;13.25;;;12.10;99.90;;;;;;4955513;28;20524;-77
2022/10/20 12:32:22;;;;;;;15.68;13.57;;;12.10;99.90;;;;;;4974225;28;20374;-77
2022/10/20 12:34:51;;;;;;;15.50;13.82;;;12.10;99.90;;;;;;4957992;28;20114;-77
2022/10/20 12:37:24;;;;;;;15.20;13.60;;;12.10;99.90;;;;;;4964923;28;20486;-77
2022/10/20 12:39:52;;;;;;;15.88;14.27;;;12.00;99.90;;;;;;4958472;28;20046;-76
2022/10/20 12:42:45;;;;;;;15.95;14.35;;;12.10;99.90;;;;;;4953968;28;20034;-77
2022/10/20 12:45:17;;;;;;;;;;;12.00;99.90;;;;;;4974269;28;20527;-77
2022/10/20 12:47:48;;;;;;;16.52;14.85;;;11.90;99.90;;;;;;4972743;28;20266;-76
2022/10/20 12:50:44;;;;;;;18.05;15.40;;;11.90;99.90;;;;;;4973031;28;20504;-77
2022/10/20 12:53:20;;;;;;;17.23;15.60;;;11.90;99.90;;;;;;4947018;28;20047;-77
2022/10/20 12:56:09;;;;;;;18.15;16.30;;;11.80;99.90;;;;;;4975139;28;20041;-77
2022/10/20 12:58:37;;;;;;;18.30;16.40;;;11.80;99.90;;;;;;4969186;28;20031;-79
2022/10/20 13:01:07;;;;;;;19.25;17.23;;;11.80;99.90;;;;;;4956696;28;20074;-78